sensor_id;sensor_type;location;lat;lon;timestamp;temperature;humidity
10492;DHT22;5293;51.464;-2.566;2022-08-03T00:01:39;21.40;99.90
10492;DHT22;5293;51.464;-2.566;2022-08-03T00:04:06;21.40;99.90
10492;DHT22;5293;51.464;-2.566;2022-08-03T00:06:32;21.30;99.90
10492;DHT22;5293;51.464;-2.566;2022-08-03T00:08:58;21.30;99.90
10492;DHT22;5293;51.464;-2.566;2022-08-03T00:11:24;21.30;99.90
10492;DHT22;5293;51.464;-2.566;2022-08-03T00:13:50;21.30;99.90
10492;DHT22;5293;51.464;-2.566;2022-08-03T00:16:16;21.30;99.90
10492;DHT22;5293;51.464;-2.566;2022-08-03T00:18:42;21.20;99.90
10492;DHT22;5293;51.464;-2.566;2022-08-03T00:21:08;21.30;99.90
10492;DHT22;5293;51.464;-2.566;2022-08-03T00:23:34;21.20;99.90
10492;DHT22;5293;51.464;-2.566;2022-08-03T00:26:00;21.10;99.90
10492;DHT22;5293;51.464;-2.566;2022-08-03T00:28:25;21.20;99.90
10492;DHT22;5293;51.464;-2.566;2022-08-03T00:30:51;21.10;99.90
10492;DHT22;5293;51.464;-2.566;2022-08-03T00:33:17;21.10;99.90
10492;DHT22;5293;51.464;-2.566;2022-08-03T00:35:43;21.20;99.90
10492;DHT22;5293;51.464;-2.566;2022-08-03T00:38:09;21.20;99.90
10492;DHT22;5293;51.464;-2.566;2022-08-03T00:40:34;21.10;99.90
10492;DHT22;5293;51.464;-2.566;2022-08-03T00:43:05;21.10;99.90
10492;DHT22;5293;51.464;-2.566;2022-08-03T00:45:36;21.10;99.90
10492;DHT22;5293;51.464;-2.566;2022-08-03T00:48:03;21.10;99.90
10492;DHT22;5293;51.464;-2.566;2022-08-03T00:50:31;21.10;99.90
10492;DHT22;5293;51.464;-2.566;2022-08-03T00:52:59;21.10;99.90
10492;DHT22;5293;51.464;-2.566;2022-08-03T00:55:26;21.10;99.90
10492;DHT22;5293;51.464;-2.566;2022-08-03T00:57:52;21.10;99.90
10492;DHT22;5293;51.464;-2.566;2022-08-03T01:00:21;21.10;99.90
10492;DHT22;5293;51.464;-2.566;2022-08-03T01:02:47;21.10;99.90
10492;DHT22;5293;51.464;-2.566;2022-08-03T01:05:13;21.10;99.90
10492;DHT22;5293;51.464;-2.566;2022-08-03T01:08:02;21.10;99.90
10492;DHT22;5293;51.464;-2.566;2022-08-03T01:10:59;21.10;99.90
10492;DHT22;5293;51.464;-2.566;2022-08-03T01:14:12;21.10;99.90
10492;DHT22;5293;51.464;-2.566;2022-08-03T01:22:01;21.00;99.90
10492;DHT22;5293;51.464;-2.566;2022-08-03T01:28:00;21.00;99.90
10492;DHT22;5293;51.464;-2.566;2022-08-03T01:30:30;21.00;99.90
10492;DHT22;5293;51.464;-2.566;2022-08-03T01:33:01;21.00;99.90
10492;DHT22;5293;51.464;-2.566;2022-08-03T01:38:22;21.00;99.90
10492;DHT22;5293;51.464;-2.566;2022-08-03T01:40:49;21.00;99.90
10492;DHT22;5293;51.464;-2.566;2022-08-03T01:43:19;21.00;99.90
10492;DHT22;5293;51.464;-2.566;2022-08-03T01:45:46;21.00;99.90
10492;DHT22;5293;51.464;-2.566;2022-08-03T01:48:14;20.90;99.90
10492;DHT22;5293;51.464;-2.566;2022-08-03T01:50:42;21.00;99.90
10492;DHT22;5293;51.464;-2.566;2022-08-03T01:53:13;20.90;99.90
10492;DHT22;5293;51.464;-2.566;2022-08-03T01:55:40;20.90;99.90
10492;DHT22;5293;51.464;-2.566;2022-08-03T01:58:07;20.90;99.90
10492;DHT22;5293;51.464;-2.566;2022-08-03T02:00:37;21.00;99.90
10492;DHT22;5293;51.464;-2.566;2022-08-03T02:03:06;20.80;99.90
10492;DHT22;5293;51.464;-2.566;2022-08-03T02:05:33;20.70;99.90
10492;DHT22;5293;51.464;-2.566;2022-08-03T02:08:01;20.80;99.90
10492;DHT22;5293;51.464;-2.566;2022-08-03T02:10:29;20.70;99.90
10492;DHT22;5293;51.464;-2.566;2022-08-03T02:12:58;20.80;99.90
10492;DHT22;5293;51.464;-2.566;2022-08-03T02:15:26;20.80;99.90
10492;DHT22;5293;51.464;-2.566;2022-08-03T02:17:53;20.70;99.90
10492;DHT22;5293;51.464;-2.566;2022-08-03T02:20:20;20.60;99.90
10492;DHT22;5293;51.464;-2.566;2022-08-03T02:22:46;20.60;99.90
10492;DHT22;5293;51.464;-2.566;2022-08-03T02:25:13;20.50;99.90
10492;DHT22;5293;51.464;-2.566;2022-08-03T02:27:47;20.50;99.90
10492;DHT22;5293;51.464;-2.566;2022-08-03T02:30:15;20.50;99.90
10492;DHT22;5293;51.464;-2.566;2022-08-03T02:32:43;20.50;99.90
10492;DHT22;5293;51.464;-2.566;2022-08-03T02:35:14;20.50;99.90
10492;DHT22;5293;51.464;-2.566;2022-08-03T02:37:43;20.50;99.90
10492;DHT22;5293;51.464;-2.566;2022-08-03T02:40:11;20.50;99.90
10492;DHT22;5293;51.464;-2.566;2022-08-03T02:42:39;20.50;99.90
10492;DHT22;5293;51.464;-2.566;2022-08-03T02:45:08;20.50;99.90
10492;DHT22;5293;51.464;-2.566;2022-08-03T02:47:38;20.40;99.90
10492;DHT22;5293;51.464;-2.566;2022-08-03T02:50:10;20.40;99.90
10492;DHT22;5293;51.464;-2.566;2022-08-03T02:52:37;20.40;99.90
10492;DHT22;5293;51.464;-2.566;2022-08-03T02:55:06;20.40;99.90
10492;DHT22;5293;51.464;-2.566;2022-08-03T02:57:34;20.40;99.90
10492;DHT22;5293;51.464;-2.566;2022-08-03T03:00:01;20.40;99.90
10492;DHT22;5293;51.464;-2.566;2022-08-03T03:02:27;20.40;99.90
10492;DHT22;5293;51.464;-2.566;2022-08-03T03:04:54;20.40;99.90
10492;DHT22;5293;51.464;-2.566;2022-08-03T03:07:21;20.40;99.90
10492;DHT22;5293;51.464;-2.566;2022-08-03T03:09:47;20.40;99.90
10492;DHT22;5293;51.464;-2.566;2022-08-03T03:12:15;20.40;99.90
10492;DHT22;5293;51.464;-2.566;2022-08-03T03:14:41;20.30;99.90
10492;DHT22;5293;51.464;-2.566;2022-08-03T03:17:08;20.30;99.90
10492;DHT22;5293;51.464;-2.566;2022-08-03T03:19:35;20.30;99.90
10492;DHT22;5293;51.464;-2.566;2022-08-03T03:22:04;20.40;99.90
10492;DHT22;5293;51.464;-2.566;2022-08-03T03:24:32;20.40;99.90
10492;DHT22;5293;51.464;-2.566;2022-08-03T03:26:59;20.40;99.90
10492;DHT22;5293;51.464;-2.566;2022-08-03T03:29:25;20.40;99.90
10492;DHT22;5293;51.464;-2.566;2022-08-03T03:31:52;20.40;99.90
10492;DHT22;5293;51.464;-2.566;2022-08-03T03:34:18;20.40;99.90
10492;DHT22;5293;51.464;-2.566;2022-08-03T03:36:44;20.30;99.90
10492;DHT22;5293;51.464;-2.566;2022-08-03T03:39:10;20.40;99.90
10492;DHT22;5293;51.464;-2.566;2022-08-03T03:41:36;20.40;99.90
10492;DHT22;5293;51.464;-2.566;2022-08-03T03:44:02;20.40;99.90
10492;DHT22;5293;51.464;-2.566;2022-08-03T03:46:28;20.40;99.90
10492;DHT22;5293;51.464;-2.566;2022-08-03T03:48:54;20.40;99.90
10492;DHT22;5293;51.464;-2.566;2022-08-03T03:51:19;20.40;99.90
10492;DHT22;5293;51.464;-2.566;2022-08-03T03:53:57;20.40;99.90
10492;DHT22;5293;51.464;-2.566;2022-08-03T03:56:23;20.40;99.90
10492;DHT22;5293;51.464;-2.566;2022-08-03T03:58:48;20.40;99.90
10492;DHT22;5293;51.464;-2.566;2022-08-03T04:01:15;20.40;99.90
10492;DHT22;5293;51.464;-2.566;2022-08-03T04:03:40;20.50;99.90
10492;DHT22;5293;51.464;-2.566;2022-08-03T04:06:06;20.40;99.90
10492;DHT22;5293;51.464;-2.566;2022-08-03T04:08:50;20.50;99.90
10492;DHT22;5293;51.464;-2.566;2022-08-03T04:11:52;20.50;99.90
10492;DHT22;5293;51.464;-2.566;2022-08-03T04:14:21;20.50;99.90
10492;DHT22;5293;51.464;-2.566;2022-08-03T04:17:00;20.50;99.90
10492;DHT22;5293;51.464;-2.566;2022-08-03T04:22:06;20.50;99.90
10492;DHT22;5293;51.464;-2.566;2022-08-03T04:24:40;20.50;99.90
10492;DHT22;5293;51.464;-2.566;2022-08-03T04:27:09;20.50;99.90
10492;DHT22;5293;51.464;-2.566;2022-08-03T04:29:38;20.50;99.90
10492;DHT22;5293;51.464;-2.566;2022-08-03T04:32:05;20.50;99.90
10492;DHT22;5293;51.464;-2.566;2022-08-03T04:34:32;20.50;99.90
10492;DHT22;5293;51.464;-2.566;2022-08-03T04:36:59;20.60;99.90
10492;DHT22;5293;51.464;-2.566;2022-08-03T04:39:28;20.50;99.90
10492;DHT22;5293;51.464;-2.566;2022-08-03T04:41:57;20.50;99.90
10492;DHT22;5293;51.464;-2.566;2022-08-03T04:44:26;20.60;99.90
10492;DHT22;5293;51.464;-2.566;2022-08-03T04:46:53;20.60;99.90
10492;DHT22;5293;51.464;-2.566;2022-08-03T04:49:20;20.60;99.90
10492;DHT22;5293;51.464;-2.566;2022-08-03T04:51:47;20.60;99.90
10492;DHT22;5293;51.464;-2.566;2022-08-03T04:54:13;20.70;99.90
10492;DHT22;5293;51.464;-2.566;2022-08-03T04:56:41;20.70;99.90
10492;DHT22;5293;51.464;-2.566;2022-08-03T04:59:08;20.70;99.90
10492;DHT22;5293;51.464;-2.566;2022-08-03T05:01:33;20.80;99.90
10492;DHT22;5293;51.464;-2.566;2022-08-03T05:03:59;20.80;99.90
10492;DHT22;5293;51.464;-2.566;2022-08-03T05:06:25;20.90;99.90
10492;DHT22;5293;51.464;-2.566;2022-08-03T05:08:51;20.80;99.90
10492;DHT22;5293;51.464;-2.566;2022-08-03T05:11:17;20.70;99.90
10492;DHT22;5293;51.464;-2.566;2022-08-03T05:13:44;20.80;99.90
10492;DHT22;5293;51.464;-2.566;2022-08-03T05:16:10;20.80;99.90
10492;DHT22;5293;51.464;-2.566;2022-08-03T05:18:36;20.90;99.90
10492;DHT22;5293;51.464;-2.566;2022-08-03T05:21:02;20.80;99.90
10492;DHT22;5293;51.464;-2.566;2022-08-03T05:23:29;20.80;99.90
10492;DHT22;5293;51.464;-2.566;2022-08-03T05:25:55;20.70;99.90
10492;DHT22;5293;51.464;-2.566;2022-08-03T05:28:21;20.90;99.90
10492;DHT22;5293;51.464;-2.566;2022-08-03T05:30:46;20.90;99.90
10492;DHT22;5293;51.464;-2.566;2022-08-03T05:33:12;21.00;99.90
10492;DHT22;5293;51.464;-2.566;2022-08-03T05:35:38;20.90;99.90
10492;DHT22;5293;51.464;-2.566;2022-08-03T05:38:04;20.90;99.90
10492;DHT22;5293;51.464;-2.566;2022-08-03T05:40:30;21.00;99.90
10492;DHT22;5293;51.464;-2.566;2022-08-03T05:42:56;20.90;99.90
10492;DHT22;5293;51.464;-2.566;2022-08-03T05:45:23;21.00;99.90
10492;DHT22;5293;51.464;-2.566;2022-08-03T05:47:49;21.00;99.90
10492;DHT22;5293;51.464;-2.566;2022-08-03T05:50:16;21.00;99.90
10492;DHT22;5293;51.464;-2.566;2022-08-03T05:52:42;20.90;99.90
10492;DHT22;5293;51.464;-2.566;2022-08-03T05:55:09;20.90;99.90
10492;DHT22;5293;51.464;-2.566;2022-08-03T05:57:36;20.90;99.90
10492;DHT22;5293;51.464;-2.566;2022-08-03T06:00:07;21.00;99.90
10492;DHT22;5293;51.464;-2.566;2022-08-03T06:02:33;21.10;99.90
10492;DHT22;5293;51.464;-2.566;2022-08-03T06:04:59;21.00;99.90
10492;DHT22;5293;51.464;-2.566;2022-08-03T06:07:25;21.10;99.90
10492;DHT22;5293;51.464;-2.566;2022-08-03T06:09:51;21.00;99.90
10492;DHT22;5293;51.464;-2.566;2022-08-03T06:12:16;21.00;99.90
10492;DHT22;5293;51.464;-2.566;2022-08-03T06:14:42;21.00;99.90
10492;DHT22;5293;51.464;-2.566;2022-08-03T06:17:08;21.00;99.90
10492;DHT22;5293;51.464;-2.566;2022-08-03T06:19:33;21.10;99.90
10492;DHT22;5293;51.464;-2.566;2022-08-03T06:21:59;21.10;99.90
10492;DHT22;5293;51.464;-2.566;2022-08-03T06:24:24;21.10;99.90
10492;DHT22;5293;51.464;-2.566;2022-08-03T06:26:50;21.10;99.90
10492;DHT22;5293;51.464;-2.566;2022-08-03T06:29:16;21.10;99.90
10492;DHT22;5293;51.464;-2.566;2022-08-03T06:31:41;21.00;99.90
10492;DHT22;5293;51.464;-2.566;2022-08-03T06:34:07;21.00;99.90
10492;DHT22;5293;51.464;-2.566;2022-08-03T06:36:33;21.10;99.90
10492;DHT22;5293;51.464;-2.566;2022-08-03T06:38:59;21.10;99.90
10492;DHT22;5293;51.464;-2.566;2022-08-03T06:41:27;21.10;99.90
10492;DHT22;5293;51.464;-2.566;2022-08-03T06:43:53;21.30;99.90
10492;DHT22;5293;51.464;-2.566;2022-08-03T06:46:19;21.20;99.90
10492;DHT22;5293;51.464;-2.566;2022-08-03T06:48:45;21.10;99.90
10492;DHT22;5293;51.464;-2.566;2022-08-03T06:51:11;21.10;99.90
10492;DHT22;5293;51.464;-2.566;2022-08-03T06:53:37;21.10;99.90
10492;DHT22;5293;51.464;-2.566;2022-08-03T06:56:06;21.10;99.90
10492;DHT22;5293;51.464;-2.566;2022-08-03T06:58:32;21.10;99.90
10492;DHT22;5293;51.464;-2.566;2022-08-03T07:00:58;21.10;99.90
10492;DHT22;5293;51.464;-2.566;2022-08-03T07:03:24;21.10;99.90
10492;DHT22;5293;51.464;-2.566;2022-08-03T07:05:49;21.10;99.90
10492;DHT22;5293;51.464;-2.566;2022-08-03T07:08:16;21.10;99.90
10492;DHT22;5293;51.464;-2.566;2022-08-03T07:10:42;21.10;99.90
10492;DHT22;5293;51.464;-2.566;2022-08-03T07:13:08;21.10;99.90
10492;DHT22;5293;51.464;-2.566;2022-08-03T07:15:35;21.10;99.90
10492;DHT22;5293;51.464;-2.566;2022-08-03T07:18:00;21.20;99.90
10492;DHT22;5293;51.464;-2.566;2022-08-03T07:20:26;21.30;99.90
10492;DHT22;5293;51.464;-2.566;2022-08-03T07:22:52;21.40;99.90
10492;DHT22;5293;51.464;-2.566;2022-08-03T07:25:18;21.60;99.90
10492;DHT22;5293;51.464;-2.566;2022-08-03T07:27:46;21.70;99.90
10492;DHT22;5293;51.464;-2.566;2022-08-03T07:30:12;21.80;99.90
10492;DHT22;5293;51.464;-2.566;2022-08-03T07:32:38;21.70;99.90
10492;DHT22;5293;51.464;-2.566;2022-08-03T07:35:05;21.80;99.90
10492;DHT22;5293;51.464;-2.566;2022-08-03T07:37:32;21.90;99.90
10492;DHT22;5293;51.464;-2.566;2022-08-03T07:39:59;22.00;99.90
10492;DHT22;5293;51.464;-2.566;2022-08-03T07:42:28;22.00;99.90
10492;DHT22;5293;51.464;-2.566;2022-08-03T07:44:54;21.90;99.90
10492;DHT22;5293;51.464;-2.566;2022-08-03T07:47:25;22.00;99.90
10492;DHT22;5293;51.464;-2.566;2022-08-03T07:49:51;22.00;99.90
10492;DHT22;5293;51.464;-2.566;2022-08-03T07:52:17;22.00;99.90
10492;DHT22;5293;51.464;-2.566;2022-08-03T07:55:01;22.10;99.90
10492;DHT22;5293;51.464;-2.566;2022-08-03T07:57:27;22.10;99.90
10492;DHT22;5293;51.464;-2.566;2022-08-03T07:59:52;22.20;99.90
10492;DHT22;5293;51.464;-2.566;2022-08-03T08:02:18;22.30;99.90
10492;DHT22;5293;51.464;-2.566;2022-08-03T08:04:44;22.30;99.90
10492;DHT22;5293;51.464;-2.566;2022-08-03T08:07:09;22.40;99.90
10492;DHT22;5293;51.464;-2.566;2022-08-03T08:09:35;22.50;99.90
10492;DHT22;5293;51.464;-2.566;2022-08-03T08:12:01;22.40;99.90
10492;DHT22;5293;51.464;-2.566;2022-08-03T08:14:26;22.50;99.90
10492;DHT22;5293;51.464;-2.566;2022-08-03T08:16:52;22.60;99.90
10492;DHT22;5293;51.464;-2.566;2022-08-03T08:19:18;22.70;99.90
10492;DHT22;5293;51.464;-2.566;2022-08-03T08:21:44;22.80;99.90
10492;DHT22;5293;51.464;-2.566;2022-08-03T08:24:09;22.90;99.90
10492;DHT22;5293;51.464;-2.566;2022-08-03T08:26:35;22.80;99.90
10492;DHT22;5293;51.464;-2.566;2022-08-03T08:29:02;22.80;99.90
10492;DHT22;5293;51.464;-2.566;2022-08-03T08:31:28;22.90;99.90
10492;DHT22;5293;51.464;-2.566;2022-08-03T08:33:53;23.10;99.90
10492;DHT22;5293;51.464;-2.566;2022-08-03T08:36:19;23.30;99.90
10492;DHT22;5293;51.464;-2.566;2022-08-03T08:38:45;23.40;99.90
10492;DHT22;5293;51.464;-2.566;2022-08-03T08:41:12;23.60;99.90
10492;DHT22;5293;51.464;-2.566;2022-08-03T08:43:38;23.60;99.90
10492;DHT22;5293;51.464;-2.566;2022-08-03T08:46:04;23.50;99.90
10492;DHT22;5293;51.464;-2.566;2022-08-03T08:48:34;23.50;99.90
10492;DHT22;5293;51.464;-2.566;2022-08-03T08:51:01;23.40;99.90
10492;DHT22;5293;51.464;-2.566;2022-08-03T08:53:27;23.30;99.90
10492;DHT22;5293;51.464;-2.566;2022-08-03T08:55:58;23.20;99.90
10492;DHT22;5293;51.464;-2.566;2022-08-03T08:58:27;22.80;99.90
10492;DHT22;5293;51.464;-2.566;2022-08-03T09:00:53;22.40;99.90
10492;DHT22;5293;51.464;-2.566;2022-08-03T09:03:19;22.10;99.90
10492;DHT22;5293;51.464;-2.566;2022-08-03T09:05:45;22.00;99.90
10492;DHT22;5293;51.464;-2.566;2022-08-03T09:08:11;22.00;99.90
10492;DHT22;5293;51.464;-2.566;2022-08-03T09:10:37;21.90;99.90
10492;DHT22;5293;51.464;-2.566;2022-08-03T09:13:02;21.90;99.90
10492;DHT22;5293;51.464;-2.566;2022-08-03T09:15:30;21.60;99.90
10492;DHT22;5293;51.464;-2.566;2022-08-03T09:17:57;21.50;99.90
10492;DHT22;5293;51.464;-2.566;2022-08-03T09:20:26;21.40;99.90
10492;DHT22;5293;51.464;-2.566;2022-08-03T09:22:53;21.40;99.90
10492;DHT22;5293;51.464;-2.566;2022-08-03T09:25:32;21.20;99.90
10492;DHT22;5293;51.464;-2.566;2022-08-03T09:28:10;21.20;99.90
10492;DHT22;5293;51.464;-2.566;2022-08-03T09:30:41;21.30;99.90
10492;DHT22;5293;51.464;-2.566;2022-08-03T09:49:08;21.00;99.90
10492;DHT22;5293;51.464;-2.566;2022-08-03T09:51:34;21.10;99.90
10492;DHT22;5293;51.464;-2.566;2022-08-03T09:53:59;21.10;99.90
10492;DHT22;5293;51.464;-2.566;2022-08-03T09:56:42;21.10;99.90
10492;DHT22;5293;51.464;-2.566;2022-08-03T09:59:09;21.10;99.90
10492;DHT22;5293;51.464;-2.566;2022-08-03T10:01:36;20.90;99.90
10492;DHT22;5293;51.464;-2.566;2022-08-03T10:04:13;20.70;99.90
10492;DHT22;5293;51.464;-2.566;2022-08-03T10:06:39;20.70;99.90
10492;DHT22;5293;51.464;-2.566;2022-08-03T10:09:09;20.60;99.90
10492;DHT22;5293;51.464;-2.566;2022-08-03T10:11:36;20.70;99.90
10492;DHT22;5293;51.464;-2.566;2022-08-03T10:14:05;20.90;99.90
10492;DHT22;5293;51.464;-2.566;2022-08-03T10:16:39;20.90;99.90
10492;DHT22;5293;51.464;-2.566;2022-08-03T10:19:07;20.80;99.90
10492;DHT22;5293;51.464;-2.566;2022-08-03T10:21:35;20.90;99.90
10492;DHT22;5293;51.464;-2.566;2022-08-03T10:24:06;20.90;99.90
10492;DHT22;5293;51.464;-2.566;2022-08-03T10:26:35;20.90;99.90
10492;DHT22;5293;51.464;-2.566;2022-08-03T10:29:04;20.80;99.90
10492;DHT22;5293;51.464;-2.566;2022-08-03T10:31:39;20.90;99.90
10492;DHT22;5293;51.464;-2.566;2022-08-03T10:34:12;21.00;99.90
10492;DHT22;5293;51.464;-2.566;2022-08-03T10:36:40;21.10;99.90
10492;DHT22;5293;51.464;-2.566;2022-08-03T10:39:06;21.20;99.90
10492;DHT22;5293;51.464;-2.566;2022-08-03T10:41:35;21.40;99.90
10492;DHT22;5293;51.464;-2.566;2022-08-03T10:44:23;21.50;99.90
10492;DHT22;5293;51.464;-2.566;2022-08-03T10:46:50;21.70;99.90
10492;DHT22;5293;51.464;-2.566;2022-08-03T10:49:18;21.70;99.90
10492;DHT22;5293;51.464;-2.566;2022-08-03T10:51:45;21.70;99.90
10492;DHT22;5293;51.464;-2.566;2022-08-03T10:54:40;21.90;99.90
10492;DHT22;5293;51.464;-2.566;2022-08-03T10:57:47;21.90;99.90
10492;DHT22;5293;51.464;-2.566;2022-08-03T11:00:21;21.70;99.90
10492;DHT22;5293;51.464;-2.566;2022-08-03T11:03:07;21.70;99.90
10492;DHT22;5293;51.464;-2.566;2022-08-03T11:05:39;21.70;99.90
10492;DHT22;5293;51.464;-2.566;2022-08-03T11:08:41;21.80;99.90
10492;DHT22;5293;51.464;-2.566;2022-08-03T11:16:32;22.00;99.90
10492;DHT22;5293;51.464;-2.566;2022-08-03T11:19:05;22.10;99.90
10492;DHT22;5293;51.464;-2.566;2022-08-03T11:29:57;22.60;99.90
10492;DHT22;5293;51.464;-2.566;2022-08-03T11:32:53;22.80;99.90
10492;DHT22;5293;51.464;-2.566;2022-08-03T11:35:26;23.00;99.90
10492;DHT22;5293;51.464;-2.566;2022-08-03T11:40:48;23.10;99.90
10492;DHT22;5293;51.464;-2.566;2022-08-03T11:45:56;23.40;99.90
10492;DHT22;5293;51.464;-2.566;2022-08-03T11:48:22;23.40;99.90
10492;DHT22;5293;51.464;-2.566;2022-08-03T11:50:51;23.50;99.90
10492;DHT22;5293;51.464;-2.566;2022-08-03T11:53:17;23.60;99.90
10492;DHT22;5293;51.464;-2.566;2022-08-03T11:55:45;23.70;99.90
10492;DHT22;5293;51.464;-2.566;2022-08-03T11:58:24;23.70;99.90
10492;DHT22;5293;51.464;-2.566;2022-08-03T12:00:50;23.70;99.90
10492;DHT22;5293;51.464;-2.566;2022-08-03T12:03:18;23.70;99.90
10492;DHT22;5293;51.464;-2.566;2022-08-03T12:05:53;23.80;99.90
10492;DHT22;5293;51.464;-2.566;2022-08-03T12:10:51;23.80;99.90
10492;DHT22;5293;51.464;-2.566;2022-08-03T12:13:18;23.80;99.90
10492;DHT22;5293;51.464;-2.566;2022-08-03T12:15:53;23.80;99.90
10492;DHT22;5293;51.464;-2.566;2022-08-03T12:18:20;23.80;99.90
10492;DHT22;5293;51.464;-2.566;2022-08-03T12:20:47;23.60;99.90
10492;DHT22;5293;51.464;-2.566;2022-08-03T12:23:13;23.70;99.90
10492;DHT22;5293;51.464;-2.566;2022-08-03T12:25:41;23.70;99.90
10492;DHT22;5293;51.464;-2.566;2022-08-03T12:28:11;23.60;99.90
10492;DHT22;5293;51.464;-2.566;2022-08-03T12:30:38;23.60;99.90
10492;DHT22;5293;51.464;-2.566;2022-08-03T12:33:15;23.50;99.90
10492;DHT22;5293;51.464;-2.566;2022-08-03T12:35:42;23.40;99.90
10492;DHT22;5293;51.464;-2.566;2022-08-03T12:38:09;23.60;99.90
10492;DHT22;5293;51.464;-2.566;2022-08-03T12:40:36;23.70;99.90
10492;DHT22;5293;51.464;-2.566;2022-08-03T12:43:12;23.90;99.90
10492;DHT22;5293;51.464;-2.566;2022-08-03T12:45:39;24.00;99.90
10492;DHT22;5293;51.464;-2.566;2022-08-03T12:48:08;24.10;99.90
10492;DHT22;5293;51.464;-2.566;2022-08-03T12:50:37;24.20;99.90
10492;DHT22;5293;51.464;-2.566;2022-08-03T12:53:06;24.00;99.90
10492;DHT22;5293;51.464;-2.566;2022-08-03T12:55:32;23.90;99.90
10492;DHT22;5293;51.464;-2.566;2022-08-03T12:58:03;23.90;99.90
10492;DHT22;5293;51.464;-2.566;2022-08-03T13:00:29;23.80;99.90
10492;DHT22;5293;51.464;-2.566;2022-08-03T13:03:13;23.70;99.90
10492;DHT22;5293;51.464;-2.566;2022-08-03T13:05:45;23.70;99.90
10492;DHT22;5293;51.464;-2.566;2022-08-03T13:08:37;23.90;99.90
10492;DHT22;5293;51.464;-2.566;2022-08-03T13:11:19;24.00;99.90
10492;DHT22;5293;51.464;-2.566;2022-08-03T13:13:45;24.20;99.90
10492;DHT22;5293;51.464;-2.566;2022-08-03T13:16:10;24.10;99.90
10492;DHT22;5293;51.464;-2.566;2022-08-03T13:18:36;24.00;99.90
10492;DHT22;5293;51.464;-2.566;2022-08-03T13:21:02;24.10;99.90
10492;DHT22;5293;51.464;-2.566;2022-08-03T13:23:27;24.00;99.90
10492;DHT22;5293;51.464;-2.566;2022-08-03T13:25:53;24.10;99.90
10492;DHT22;5293;51.464;-2.566;2022-08-03T13:28:19;24.20;99.90
10492;DHT22;5293;51.464;-2.566;2022-08-03T13:30:44;24.20;99.90
10492;DHT22;5293;51.464;-2.566;2022-08-03T13:33:10;24.30;99.90
10492;DHT22;5293;51.464;-2.566;2022-08-03T13:35:36;24.30;99.90
10492;DHT22;5293;51.464;-2.566;2022-08-03T13:38:01;24.30;99.90
10492;DHT22;5293;51.464;-2.566;2022-08-03T13:40:27;24.20;99.90
10492;DHT22;5293;51.464;-2.566;2022-08-03T13:42:53;24.30;99.90
10492;DHT22;5293;51.464;-2.566;2022-08-03T13:45:18;24.30;99.90
10492;DHT22;5293;51.464;-2.566;2022-08-03T13:47:44;24.40;99.90
10492;DHT22;5293;51.464;-2.566;2022-08-03T13:50:10;24.40;99.90
10492;DHT22;5293;51.464;-2.566;2022-08-03T13:52:35;24.30;99.90
10492;DHT22;5293;51.464;-2.566;2022-08-03T13:55:03;24.20;99.90
10492;DHT22;5293;51.464;-2.566;2022-08-03T13:57:29;24.20;99.90
10492;DHT22;5293;51.464;-2.566;2022-08-03T13:59:55;24.00;99.90
10492;DHT22;5293;51.464;-2.566;2022-08-03T14:02:21;23.80;99.90
10492;DHT22;5293;51.464;-2.566;2022-08-03T14:04:46;23.60;99.90
10492;DHT22;5293;51.464;-2.566;2022-08-03T14:07:12;23.50;99.90
10492;DHT22;5293;51.464;-2.566;2022-08-03T14:09:39;23.50;99.90
10492;DHT22;5293;51.464;-2.566;2022-08-03T14:12:05;23.60;99.90
10492;DHT22;5293;51.464;-2.566;2022-08-03T14:14:31;23.70;99.90
10492;DHT22;5293;51.464;-2.566;2022-08-03T14:16:56;23.80;99.90
10492;DHT22;5293;51.464;-2.566;2022-08-03T14:19:22;23.70;99.90
10492;DHT22;5293;51.464;-2.566;2022-08-03T14:21:50;23.90;99.90
10492;DHT22;5293;51.464;-2.566;2022-08-03T14:24:16;23.80;99.90
10492;DHT22;5293;51.464;-2.566;2022-08-03T14:26:41;23.80;99.90
10492;DHT22;5293;51.464;-2.566;2022-08-03T14:29:07;23.70;99.90
10492;DHT22;5293;51.464;-2.566;2022-08-03T14:31:33;23.80;99.90
10492;DHT22;5293;51.464;-2.566;2022-08-03T14:33:58;23.70;99.90
10492;DHT22;5293;51.464;-2.566;2022-08-03T14:36:24;23.90;99.90
10492;DHT22;5293;51.464;-2.566;2022-08-03T14:38:50;24.00;99.90
10492;DHT22;5293;51.464;-2.566;2022-08-03T14:41:15;23.90;99.90
10492;DHT22;5293;51.464;-2.566;2022-08-03T14:43:41;23.80;99.90
10492;DHT22;5293;51.464;-2.566;2022-08-03T14:46:07;23.80;99.90
10492;DHT22;5293;51.464;-2.566;2022-08-03T14:48:33;23.80;99.90
10492;DHT22;5293;51.464;-2.566;2022-08-03T14:50:58;23.80;99.90
10492;DHT22;5293;51.464;-2.566;2022-08-03T14:53:24;23.90;99.90
10492;DHT22;5293;51.464;-2.566;2022-08-03T14:55:50;23.90;99.90
10492;DHT22;5293;51.464;-2.566;2022-08-03T14:58:24;24.00;99.90
10492;DHT22;5293;51.464;-2.566;2022-08-03T15:00:52;24.00;99.90
10492;DHT22;5293;51.464;-2.566;2022-08-03T15:03:19;24.10;99.90
10492;DHT22;5293;51.464;-2.566;2022-08-03T15:05:48;24.10;99.90
10492;DHT22;5293;51.464;-2.566;2022-08-03T15:08:14;24.20;99.90
10492;DHT22;5293;51.464;-2.566;2022-08-03T15:10:40;24.20;99.90
10492;DHT22;5293;51.464;-2.566;2022-08-03T15:13:06;24.30;99.90
10492;DHT22;5293;51.464;-2.566;2022-08-03T15:15:31;24.30;99.90
10492;DHT22;5293;51.464;-2.566;2022-08-03T15:17:57;24.00;99.90
10492;DHT22;5293;51.464;-2.566;2022-08-03T15:20:23;23.90;99.90
10492;DHT22;5293;51.464;-2.566;2022-08-03T15:22:52;23.80;99.90
10492;DHT22;5293;51.464;-2.566;2022-08-03T15:25:18;23.80;99.90
10492;DHT22;5293;51.464;-2.566;2022-08-03T15:27:44;23.90;99.90
10492;DHT22;5293;51.464;-2.566;2022-08-03T15:30:10;23.80;99.90
10492;DHT22;5293;51.464;-2.566;2022-08-03T15:32:36;23.90;99.90
10492;DHT22;5293;51.464;-2.566;2022-08-03T15:35:01;23.90;99.90
10492;DHT22;5293;51.464;-2.566;2022-08-03T15:37:27;23.90;99.90
10492;DHT22;5293;51.464;-2.566;2022-08-03T15:39:53;23.80;99.90
10492;DHT22;5293;51.464;-2.566;2022-08-03T15:42:18;23.80;99.90
10492;DHT22;5293;51.464;-2.566;2022-08-03T15:44:45;23.90;99.90
10492;DHT22;5293;51.464;-2.566;2022-08-03T15:47:10;23.90;99.90
10492;DHT22;5293;51.464;-2.566;2022-08-03T15:49:36;23.90;99.90
10492;DHT22;5293;51.464;-2.566;2022-08-03T15:52:02;24.00;99.90
10492;DHT22;5293;51.464;-2.566;2022-08-03T15:54:27;23.90;99.90
10492;DHT22;5293;51.464;-2.566;2022-08-03T15:56:53;23.90;99.90
10492;DHT22;5293;51.464;-2.566;2022-08-03T15:59:19;23.90;99.90
10492;DHT22;5293;51.464;-2.566;2022-08-03T16:01:46;23.90;99.90
10492;DHT22;5293;51.464;-2.566;2022-08-03T16:04:12;23.90;99.90
10492;DHT22;5293;51.464;-2.566;2022-08-03T16:06:37;23.90;99.90
10492;DHT22;5293;51.464;-2.566;2022-08-03T16:09:04;23.70;99.90
10492;DHT22;5293;51.464;-2.566;2022-08-03T16:11:31;23.60;99.90
10492;DHT22;5293;51.464;-2.566;2022-08-03T16:13:57;23.60;99.90
10492;DHT22;5293;51.464;-2.566;2022-08-03T16:16:22;23.60;99.90
10492;DHT22;5293;51.464;-2.566;2022-08-03T16:18:48;23.60;99.90
10492;DHT22;5293;51.464;-2.566;2022-08-03T16:21:14;23.70;99.90
10492;DHT22;5293;51.464;-2.566;2022-08-03T16:23:40;23.70;99.90
10492;DHT22;5293;51.464;-2.566;2022-08-03T16:26:05;23.50;99.90
10492;DHT22;5293;51.464;-2.566;2022-08-03T16:28:32;23.50;99.90